Time;durP1;ratioP1;P1;durP2;ratioP2;P2;SDS_P1;SDS_P2;PMS_P1;PMS_P2;Temp;Humidity;BMP_temperature;BMP_pressure;BME280_temperature;BME280_humidity;BME280_pressure;Samples;Min_cycle;Max_cycle;Signal;HPM_P1;HPM_P2
2022/07/02 00:00:59;;;;;;;3.17;1.70;;;;;;;19.62;46.39;101067.09;1781774;80;20960;-92
2022/07/02 00:03:36;;;;;;;4.80;1.70;;;;;;;19.59;46.71;101069.55;1781690;80;21207;-92
2022/07/02 00:06:05;;;;;;;9.10;1.70;;;;;;;19.56;46.70;101071.13;1781725;80;20904;-93
2022/07/02 00:08:34;;;;;;;7.92;2.02;;;;;;;19.54;46.74;101070.93;1781860;80;20864;-92
2022/07/02 00:11:06;;;;;;;2.65;1.42;;;;;;;19.50;46.70;101069.52;1781143;80;20919;-90
2022/07/02 00:13:30;;;;;;;7.67;2.20;;;;;;;19.46;46.98;101076.95;1779407;79;20959;-90
2022/07/02 00:15:57;;;;;;;6.35;1.67;;;;;;;19.43;47.07;101081.20;1781349;80;21219;-91
2022/07/02 00:18:24;;;;;;;6.05;2.25;;;;;;;19.40;46.37;101082.82;1781134;79;20892;-91
2022/07/02 00:20:51;;;;;;;6.97;2.37;;;;;;;19.35;46.17;101085.90;1781283;80;20961;-93
2022/07/02 00:23:19;;;;;;;6.90;2.55;;;;;;;19.31;46.56;101088.97;1751041;80;21018;-91
2022/07/02 00:25:58;;;;;;;3.33;1.75;;;;;;;19.28;46.85;101089.26;1783967;77;20947;-92
2022/07/02 00:28:25;;;;;;;5.83;2.62;;;;;;;19.25;46.97;101094.34;1783138;80;21249;-91
2022/07/02 00:30:52;;;;;;;7.92;2.15;;;;;;;19.21;47.16;101093.78;1784189;80;20924;-92
2022/07/02 00:33:19;;;;;;;3.72;3.20;;;;;;;19.19;47.54;101106.88;1784265;80;20837;-91
2022/07/02 00:35:46;;;;;;;5.75;3.27;;;;;;;19.14;47.54;101109.08;1781982;80;20920;-92
2022/07/02 00:38:13;;;;;;;6.95;3.95;;;;;;;19.10;47.88;101107.20;1780967;80;20868;-91
2022/07/02 00:40:40;;;;;;;11.05;4.50;;;;;;;19.03;47.69;101104.23;1750812;80;21204;-91
2022/07/02 00:43:07;;;;;;;4.58;3.87;;;;;;;18.98;47.73;101101.13;1780876;80;20900;-91
2022/07/02 00:45:35;;;;;;;10.75;4.42;;;;;;;18.93;47.81;101103.35;1781463;80;20919;-90
2022/07/02 00:48:02;;;;;;;7.90;4.40;;;;;;;18.88;47.74;101102.92;1781370;80;21405;-90
2022/07/02 00:50:29;;;;;;;8.10;4.50;;;;;;;18.82;47.98;101106.11;1781406;80;20982;-91
2022/07/02 00:52:56;;;;;;;9.50;4.10;;;;;;;18.77;48.32;101106.52;1781104;79;21121;-92
2022/07/02 00:55:23;;;;;;;6.35;5.25;;;;;;;18.73;48.99;101110.38;1781622;80;20916;-91
2022/07/02 00:57:50;;;;;;;8.73;7.15;;;;;;;18.69;49.09;101104.96;1781574;79;20912;-92
2022/07/02 01:00:17;;;;;;;12.55;6.67;;;;;;;18.66;48.90;101113.21;1781560;80;20872;-90
2022/07/02 01:02:44;;;;;;;13.15;10.43;;;;;;;18.61;49.15;101116.77;1781636;80;20872;-91
2022/07/02 01:05:15;;;;;;;13.50;8.98;;;;;;;18.57;49.06;101122.81;1781539;79;21212;-91
2022/07/02 01:07:45;;;;;;;17.98;7.92;;;;;;;18.54;49.27;101127.53;1781528;79;20903;-92
2022/07/02 01:10:16;;;;;;;7.70;6.60;;;;;;;18.49;49.29;101129.75;1752189;80;20959;-92
2022/07/02 01:12:46;;;;;;;9.18;4.90;;;;;;;18.42;49.41;101127.61;1781339;79;22288;-90
2022/07/02 01:15:13;;;;;;;7.85;5.08;;;;;;;18.39;49.45;101129.70;1747112;80;20849;-91
2022/07/02 01:17:41;;;;;;;10.43;4.70;;;;;;;18.36;49.45;101125.50;1744237;82;21131;-92
2022/07/02 01:20:09;;;;;;;7.90;4.20;;;;;;;18.34;49.45;101134.55;1717961;82;20897;-91
2022/07/02 01:22:40;;;;;;;9.93;4.20;;;;;;;18.31;49.35;101140.95;1744784;81;20853;-89
2022/07/02 01:25:07;;;;;;;6.75;4.03;;;;;;;18.30;48.48;101149.08;1721130;80;20899;-91
2022/07/02 01:27:35;;;;;;;6.33;3.98;;;;;;;18.27;48.52;101151.47;1784389;78;20939;-90
2022/07/02 01:30:03;;;;;;;9.25;4.45;;;;;;;18.24;48.43;101153.07;1784486;77;21188;-90
2022/07/02 01:32:33;;;;;;;10.55;4.85;;;;;;;18.22;48.27;101168.28;1784257;78;20884;-87
2022/07/02 01:35:05;;;;;;;14.03;5.55;;;;;;;18.18;48.02;101182.78;1782449;80;21389;-92
2022/07/02 01:37:32;;;;;;;15.30;4.83;;;;;;;18.13;47.61;101180.51;1781415;80;20888;-91
2022/07/02 01:39:59;;;;;;;14.33;4.05;;;;;;;18.09;47.09;101180.41;1781330;80;20994;-90
2022/07/02 01:42:26;;;;;;;13.28;4.42;;;;;;;18.05;47.10;101184.77;1781186;79;21247;-91
2022/07/02 01:44:53;;;;;;;6.30;4.10;;;;;;;17.99;47.40;101183.48;1781199;80;20853;-90
2022/07/02 01:47:20;;;;;;;11.35;5.10;;;;;;;17.97;47.11;101188.06;1781190;79;20916;-91
2022/07/02 01:49:48;;;;;;;10.50;4.37;;;;;;;17.93;47.74;101198.08;1781147;80;20948;-91
2022/07/02 01:52:15;;;;;;;7.92;4.80;;;;;;;17.90;47.49;101186.89;1781055;80;20908;-90
2022/07/02 01:54:44;;;;;;;8.65;5.28;;;;;;;17.88;46.82;101198.11;1781278;80;21314;-91
2022/07/02 01:57:13;;;;;;;10.10;6.87;;;;;;;17.86;46.15;101193.41;1781237;79;20919;-91
2022/07/02 01:59:40;;;;;;;11.75;5.70;;;;;;;17.81;45.31;101189.31;1781238;80;20978;-90
2022/07/02 02:02:07;;;;;;;8.53;6.65;;;;;;;17.76;45.59;101189.29;1781182;80;20832;-89
2022/07/02 02:04:34;;;;;;;12.70;6.05;;;;;;;17.72;44.62;101193.16;1781287;80;20940;-91
2022/07/02 02:07:02;;;;;;;14.38;5.12;;;;;;;17.70;45.22;101196.44;1781364;80;21224;-91
2022/07/02 02:09:29;;;;;;;12.95;5.80;;;;;;;17.69;44.67;101204.86;1751479;80;20990;-91
2022/07/02 02:11:55;;;;;;;8.43;5.45;;;;;;;17.67;44.77;101217.40;1782442;80;20947;-90
2022/07/02 02:14:22;;;;;;;10.18;4.60;;;;;;;17.65;45.07;101214.52;1784941;80;20975;-91
2022/07/02 02:16:50;;;;;;;13.62;5.65;;;;;;;17.61;44.40;101220.57;1786973;79;20951;-91
2022/07/02 02:19:18;;;;;;;8.65;5.12;;;;;;;17.57;44.40;101221.28;1787070;79;22347;-90
2022/07/02 02:21:45;;;;;;;9.53;5.08;;;;;;;17.54;44.39;101214.91;1788044;80;20918;-90
2022/07/02 02:24:13;;;;;;;7.87;4.35;;;;;;;17.52;44.26;101227.91;1789829;77;20884;-90
2022/07/02 02:26:39;;;;;;;8.83;4.90;;;;;;;17.47;44.48;101229.60;1789598;77;20868;-90
2022/07/02 02:29:06;;;;;;;8.10;4.92;;;;;;;17.44;44.36;101225.05;1789629;80;20896;-90
2022/07/02 02:31:33;;;;;;;9.70;4.37;;;;;;;17.42;44.52;101234.92;1789007;80;21164;-90
2022/07/02 02:34:00;;;;;;;8.80;4.40;;;;;;;17.38;44.00;101236.96;1787325;80;21424;-91
2022/07/02 02:36:26;;;;;;;12.37;4.60;;;;;;;17.35;44.59;101243.84;1787051;80;20872;-90
2022/07/02 02:38:54;;;;;;;8.90;4.50;;;;;;;17.32;44.67;101250.23;1787229;79;20848;-91
2022/07/02 02:41:21;;;;;;;12.60;4.90;;;;;;;17.30;44.82;101252.16;1787006;80;20871;-89
2022/07/02 02:43:49;;;;;;;10.70;4.15;;;;;;;17.31;44.81;101254.33;1786882;80;21366;-91
2022/07/02 02:46:16;;;;;;;11.88;4.72;;;;;;;17.30;44.70;101258.79;1787215;79;20895;-91
2022/07/02 02:48:43;;;;;;;10.18;4.22;;;;;;;17.30;44.88;101256.63;1787421;80;20872;-89
2022/07/02 02:51:14;;;;;;;7.67;4.53;;;;;;;17.30;44.65;101264.58;1788030;80;20899;-89
2022/07/02 02:53:42;;;;;;;8.73;4.83;;;;;;;17.30;44.47;101268.07;1788607;80;20970;-89
2022/07/02 02:56:09;;;;;;;8.90;4.70;;;;;;;17.30;44.95;101264.09;1787272;79;21479;-90
2022/07/02 02:58:37;;;;;;;11.20;5.28;;;;;;;17.29;45.27;101265.53;1786832;79;21377;-90
2022/07/02 03:01:04;;;;;;;8.78;4.65;;;;;;;17.29;45.73;101260.22;1786827;80;20887;-91
2022/07/02 03:03:31;;;;;;;12.07;5.53;;;;;;;17.27;45.87;101266.96;1786901;80;20951;-92
2022/07/02 03:05:59;;;;;;;10.82;5.22;;;;;;;17.26;45.97;101277.70;1786897;80;20994;-90
2022/07/02 03:08:26;;;;;;;11.88;5.92;;;;;;;17.25;46.47;101277.33;1786849;80;21220;-89
2022/07/02 03:10:55;;;;;;;12.60;6.35;;;;;;;17.25;46.66;101285.28;1786872;80;20880;-90
2022/07/02 03:13:22;;;;;;;14.13;5.70;;;;;;;17.26;46.98;101289.14;1786653;79;20875;-90
2022/07/02 03:15:49;;;;;;;12.28;6.45;;;;;;;17.27;46.94;101285.52;1787664;80;20951;-90
2022/07/02 03:18:17;;;;;;;12.43;6.50;;;;;;;17.27;46.70;101293.96;1789011;80;20871;-91
2022/07/02 03:20:44;;;;;;;11.78;6.47;;;;;;;17.26;46.87;101301.08;1789898;78;21112;-89
2022/07/02 03:23:12;;;;;;;15.35;6.28;;;;;;;17.26;46.71;101309.03;1789774;77;20986;-90
2022/07/02 03:25:40;;;;;;;14.30;6.87;;;;;;;17.26;46.60;101306.38;1789622;77;20888;-89
2022/07/02 03:28:07;;;;;;;10.08;5.72;;;;;;;17.27;46.70;101313.36;1788663;80;20931;-90
2022/07/02 03:30:35;;;;;;;12.95;5.83;;;;;;;17.26;46.60;101303.73;1759982;80;20903;-91
2022/07/02 03:33:02;;;;;;;13.25;7.37;;;;;;;17.27;46.53;101312.03;1787141;79;21219;-88
2022/07/02 03:35:29;;;;;;;10.10;6.15;;;;;;;17.26;46.20;101308.19;1787054;80;21317;-89
2022/07/02 03:37:56;;;;;;;11.83;5.50;;;;;;;17.26;45.97;101308.19;1786875;79;20899;-89
2022/07/02 03:40:23;;;;;;;14.80;6.53;;;;;;;17.26;46.50;101312.17;1786823;80;20919;-91
2022/07/02 03:42:50;;;;;;;14.28;8.00;;;;;;;17.27;45.98;101308.05;1787060;79;20859;-93
2022/07/02 03:45:20;;;;;;;14.45;7.72;;;;;;;17.28;45.59;101311.58;1787073;80;21267;-92
2022/07/02 03:47:51;;;;;;;10.35;7.95;;;;;;;17.30;44.57;101308.33;1787108;80;20998;-91
2022/07/02 03:50:18;;;;;;;11.30;7.85;;;;;;;17.30;44.70;101309.65;1786758;80;20836;-91
2022/07/02 03:52:44;;;;;;;15.32;7.20;;;;;;;17.30;44.24;101319.77;1786855;79;20927;-91
2022/07/02 03:55:11;;;;;;;14.93;8.03;;;;;;;17.32;44.25;101319.17;1787116;79;21033;-91
2022/07/02 03:57:39;;;;;;;12.63;6.22;;;;;;;17.36;45.38;101311.34;1787030;80;21623;-91
2022/07/02 04:00:07;;;;;;;12.25;7.40;;;;;;;17.44;45.82;101319.17;1786876;79;20856;-91
2022/07/02 04:02:43;;;;;;;9.88;7.12;;;;;;;17.52;45.02;101322.05;1787036;80;21021;-92
2022/07/02 04:05:10;;;;;;;10.93;7.35;;;;;;;17.56;43.53;101316.42;1787375;80;20939;-92
2022/07/02 04:07:38;;;;;;;12.15;7.25;;;;;;;17.59;42.85;101327.27;1787258;79;20879;-93
2022/07/02 04:10:06;;;;;;;11.75;7.47;;;;;;;17.63;42.88;101328.72;1789262;80;21215;-91
2022/07/02 04:12:35;;;;;;;7.35;6.33;;;;;;;17.67;42.50;101321.34;1788854;80;21044;-91
2022/07/02 04:15:03;;;;;;;7.10;5.08;;;;;;;17.80;43.16;101325.55;1788503;80;21014;-90
2022/07/02 04:17:30;;;;;;;11.20;4.95;;;;;;;18.18;43.51;101328.80;1787733;80;21444;-92
2022/07/02 04:19:57;;;;;;;8.83;3.85;;;;;;;18.77;42.88;101322.20;1788616;78;20848;-91
2022/07/02 04:22:24;;;;;;;15.32;4.40;;;;;;;19.45;40.00;101324.84;1790120;78;21206;-92
2022/07/02 04:24:51;;;;;;;6.10;3.87;;;;;;;20.12;38.88;101327.92;1789351;77;20970;-92
2022/07/02 04:27:18;;;;;;;6.35;3.72;;;;;;;20.74;36.67;101331.20;1789660;80;20963;-93
2022/07/02 04:29:45;;;;;;;10.05;3.87;;;;;;;21.27;35.38;101329.87;1789155;79;20922;-92
2022/07/02 04:32:12;;;;;;;10.32;4.10;;;;;;;21.73;34.47;101322.36;1787059;80;20938;-93
2022/07/02 04:34:42;;;;;;;6.90;3.77;;;;;;;22.12;33.50;101323.97;1787291;80;21041;-93
2022/07/02 04:37:10;;;;;;;7.42;4.40;;;;;;;22.47;33.33;101323.70;1787226;80;20954;-94
2022/07/02 04:39:37;;;;;;;6.55;3.72;;;;;;;22.81;32.74;101321.17;1787492;79;20899;-92
2022/07/02 04:42:07;;;;;;;7.08;3.58;;;;;;;23.20;33.02;101324.81;1787133;80;20836;-94
2022/07/02 04:44:35;;;;;;;8.68;4.08;;;;;;;23.65;32.95;101333.09;1787428;78;20825;-92
2022/07/02 04:47:02;;;;;;;4.40;3.30;;;;;;;24.10;32.03;101331.11;1787308;79;21857;-89
2022/07/02 04:49:32;;;;;;;5.90;3.77;;;;;;;24.50;31.54;101333.08;1788903;80;20876;-90
2022/07/02 04:51:59;;;;;;;7.67;3.58;;;;;;;24.81;30.64;101331.92;1790099;79;20911;-91
2022/07/02 04:54:26;;;;;;;8.13;3.92;;;;;;;25.08;30.46;101335.25;1790258;78;20840;-91
2022/07/02 04:56:53;;;;;;;5.80;3.62;;;;;;;25.42;29.97;101336.89;1790418;77;20947;-91
2022/07/02 04:59:20;;;;;;;8.08;4.20;;;;;;;25.75;29.09;101342.16;1788425;80;21412;-91
2022/07/02 05:01:51;;;;;;;8.05;4.10;;;;;;;26.04;28.40;101347.76;1787673;79;20911;-94
2022/07/02 05:04:21;;;;;;;15.90;4.30;;;;;;;26.29;28.31;101346.27;1787605;80;20939;-93
2022/07/02 05:06:48;;;;;;;7.00;4.22;;;;;;;26.55;28.01;101339.72;1787717;80;21403;-94
2022/07/02 05:09:15;;;;;;;5.60;4.22;;;;;;;26.84;27.77;101341.19;1789198;79;20966;-92
2022/07/02 05:11:42;;;;;;;7.90;4.70;;;;;;;27.06;27.75;101344.03;1789352;78;21171;-92
2022/07/02 05:14:10;;;;;;;7.50;4.40;;;;;;;27.27;27.35;101348.72;1788441;79;21116;-90
2022/07/02 05:16:37;;;;;;;11.35;3.72;;;;;;;27.45;26.85;101353.23;1788542;79;21447;-93
2022/07/02 05:19:04;;;;;;;13.78;4.40;;;;;;;27.69;26.16;101353.98;1789372;80;20883;-92
2022/07/02 05:21:31;;;;;;;3.60;3.17;;;;;;;27.85;25.94;101344.36;1790145;77;20927;-92
2022/07/02 05:23:58;;;;;;;5.97;3.72;;;;;;;28.00;25.52;101347.56;1790081;77;21372;-93
2022/07/02 05:26:25;;;;;;;6.33;3.37;;;;;;;28.19;25.41;101344.27;1789617;80;20832;-91
2022/07/02 05:28:53;;;;;;;10.80;3.80;;;;;;;28.39;24.91;101350.36;1789218;80;21408;-92
2022/07/02 05:31:20;;;;;;;8.48;3.50;;;;;;;28.53;24.99;101341.94;1787661;79;20888;-93
2022/07/02 05:33:47;;;;;;;4.53;3.92;;;;;;;28.62;25.09;101338.91;1787613;80;20923;-94
2022/07/02 05:36:14;;;;;;;7.65;4.20;;;;;;;28.64;24.95;101342.77;1787610;79;21302;-93
2022/07/02 05:38:41;;;;;;;6.87;4.90;;;;;;;28.75;24.97;101344.09;1787784;80;20907;-93
2022/07/02 05:41:08;;;;;;;8.90;4.40;;;;;;;28.96;24.64;101344.06;1787293;80;20975;-92
2022/07/02 05:43:34;;;;;;;9.08;3.83;;;;;;;29.20;24.76;101343.34;1787220;80;20860;-92
2022/07/02 05:46:01;;;;;;;8.50;3.77;;;;;;;29.42;24.09;101342.23;1787348;80;20978;-92
2022/07/02 05:48:28;;;;;;;10.13;4.08;;;;;;;29.60;24.11;101339.53;1786989;78;21186;-91
2022/07/02 05:50:55;;;;;;;7.62;3.52;;;;;;;29.69;23.96;101332.95;1786945;80;21412;-91
2022/07/02 05:53:22;;;;;;;5.37;2.70;;;;;;;29.69;24.06;101335.65;1787203;80;20994;-93
2022/07/02 05:55:49;;;;;;;5.47;2.95;;;;;;;29.80;24.14;101339.66;1787775;80;21002;-93
2022/07/02 05:58:16;;;;;;;4.40;2.58;;;;;;;29.86;23.59;101332.06;1787114;80;20840;-92
2022/07/02 06:00:43;;;;;;;4.97;2.90;;;;;;;30.03;24.10;101332.55;1787250;80;21266;-92
2022/07/02 06:03:10;;;;;;;7.25;2.92;;;;;;;30.26;23.30;101333.53;1787492;80;20971;-92
2022/07/02 06:08:23;;;;;;;4.15;1.80;;;;;;;30.64;22.32;101325.72;1787341;80;20895;-93
2022/07/02 06:10:52;;;;;;;2.52;1.60;;;;;;;30.83;22.08;101319.15;1787568;80;21010;-92
2022/07/02 06:13:19;;;;;;;4.83;2.08;;;;;;;30.91;22.22;101331.17;1787684;79;21897;-93
2022/07/02 06:15:48;;;;;;;8.83;1.67;;;;;;;30.96;21.85;101329.48;1787695;80;20816;-93
2022/07/02 06:18:15;;;;;;;8.55;2.25;;;;;;;30.83;22.05;101330.81;1790025;77;20881;-91
2022/07/02 06:20:42;;;;;;;2.37;1.70;;;;;;;30.84;22.46;101322.16;1790162;78;20899;-93
2022/07/02 06:23:09;;;;;;;11.88;1.80;;;;;;;30.87;22.33;101325.85;1789873;80;20938;-93
2022/07/02 06:25:36;;;;;;;5.47;1.20;;;;;;;30.94;21.91;101320.73;1789437;80;21419;-91
2022/07/02 06:28:03;;;;;;;2.77;1.07;;;;;;;31.01;21.39;101318.01;1788092;80;20966;-92
2022/07/02 06:30:30;;;;;;;7.28;1.77;;;;;;;31.19;21.73;101314.64;1787253;80;20967;-88
2022/07/02 06:32:58;;;;;;;2.33;1.10;;;;;;;31.38;21.44;101319.19;1789575;78;20895;-91
2022/07/02 06:35:25;;;;;;;1.92;1.10;;;;;;;31.52;21.08;101317.29;1788303;79;20868;-92
2022/07/02 06:37:53;;;;;;;4.55;1.00;;;;;;;31.63;20.35;101318.51;1787105;79;21113;-92
2022/07/02 06:40:20;;;;;;;1.65;1.27;;;;;;;31.71;20.61;101314.20;1787249;80;21503;-94
2022/07/02 06:42:47;;;;;;;2.72;0.78;;;;;;;31.88;20.27;101317.23;1787227;79;20871;-91
2022/07/02 06:45:14;;;;;;;3.40;1.37;;;;;;;32.03;20.08;101314.81;1786920;80;20852;-92
2022/07/02 06:47:43;;;;;;;3.65;1.07;;;;;;;32.15;19.88;101315.27;1787372;80;20923;-93
2022/07/02 06:50:10;;;;;;;6.95;1.52;;;;;;;32.19;20.13;101315.14;1787295;80;21244;-92
2022/07/02 06:52:37;;;;;;;2.83;1.17;;;;;;;32.21;19.62;101316.25;1786902;80;21655;-92
2022/07/02 06:55:05;;;;;;;3.77;1.40;;;;;;;32.23;19.95;101311.97;1787545;80;21341;-90
2022/07/02 06:57:32;;;;;;;6.67;1.70;;;;;;;32.19;20.44;101311.56;1787782;79;21420;-91
2022/07/02 06:59:59;;;;;;;7.12;1.30;;;;;;;32.22;20.16;101313.86;1787385;80;20908;-89
2022/07/02 07:02:26;;;;;;;2.40;1.20;;;;;;;32.31;20.55;101317.15;1787362;80;21873;-91
2022/07/02 07:04:54;;;;;;;8.40;4.08;;;;;;;32.43;19.98;101316.20;1786947;79;20876;-90
2022/07/02 07:07:29;;;;;;;47.38;42.75;;;;;;;32.51;19.71;101323.27;1787034;80;20926;-91
2022/07/02 07:09:56;;;;;;;3.58;2.05;;;;;;;32.21;19.13;101325.76;1786391;80;20904;-91
2022/07/02 07:12:23;;;;;;;3.50;1.02;;;;;;;32.10;20.00;101325.09;1787528;80;20963;-93
2022/07/02 07:14:52;;;;;;;4.67;4.17;;;;;;;32.24;19.55;101317.69;1787852;80;21099;-92
2022/07/02 07:17:21;;;;;;;4.33;1.75;;;;;;;32.32;19.32;101318.80;1789802;77;21423;-92
2022/07/02 07:19:48;;;;;;;2.45;1.30;;;;;;;32.03;19.44;101312.09;1789915;77;20903;-92
2022/07/02 07:22:16;;;;;;;3.72;1.85;;;;;;;32.01;20.04;101315.84;1789676;80;20911;-95
2022/07/02 07:24:44;;;;;;;2.52;1.10;;;;;;;32.16;20.18;101318.80;1789760;80;20864;-93
2022/07/02 07:27:11;;;;;;;4.97;1.30;;;;;;;32.32;20.35;101325.05;1789788;80;21208;-93
2022/07/02 07:29:39;;;;;;;2.83;1.20;;;;;;;32.49;19.84;101319.93;1789482;78;20892;-93
2022/07/02 07:32:06;;;;;;;2.98;2.05;;;;;;;32.69;20.04;101317.09;1788962;78;21322;-93
2022/07/02 07:34:36;;;;;;;2.15;0.85;;;;;;;32.95;19.25;101311.95;1788505;80;20970;-92
2022/07/02 07:37:03;;;;;;;2.02;1.12;;;;;;;32.97;19.19;101316.63;1789097;79;21428;-91
2022/07/02 07:39:34;;;;;;;2.62;1.32;;;;;;;33.02;18.98;101310.52;1788785;80;21092;-94
2022/07/02 07:42:01;;;;;;;2.55;1.20;;;;;;;33.02;19.44;101307.27;1788110;80;20888;-93
2022/07/02 07:44:28;;;;;;;3.10;2.25;;;;;;;33.12;19.80;101312.74;1787669;79;20914;-93
2022/07/02 07:46:55;;;;;;;6.53;2.80;;;;;;;33.32;19.37;101311.17;1787570;80;21464;-91
2022/07/02 07:49:22;;;;;;;3.00;1.12;;;;;;;33.38;19.58;101311.09;1787300;80;20962;-96
2022/07/02 07:51:49;;;;;;;7.20;1.00;;;;;;;33.45;19.53;101321.36;1787365;79;21995;-95
2022/07/02 07:54:18;;;;;;;1.85;1.40;;;;;;;33.58;19.03;101317.69;1787309;80;20875;-95
2022/07/02 07:56:45;;;;;;;2.50;1.02;;;;;;;33.69;18.74;101314.73;1787736;79;20915;-95
2022/07/02 07:59:12;;;;;;;4.45;0.82;;;;;;;33.80;19.14;101319.39;1788860;79;20911;-94
2022/07/02 08:01:43;;;;;;;6.50;1.12;;;;;;;33.94;19.03;101312.41;1759937;80;20919;-94
2022/07/02 08:04:12;;;;;;;6.45;2.30;;;;;;;34.01;19.12;101313.14;1759162;80;20940;-94
2022/07/02 08:06:39;;;;;;;3.83;1.32;;;;;;;33.99;18.68;101319.34;1787424;79;20915;-90
2022/07/02 08:09:06;;;;;;;2.60;1.12;;;;;;;33.86;19.02;101321.71;1788268;80;20871;-90
2022/07/02 08:11:33;;;;;;;2.98;1.32;;;;;;;33.61;18.66;101325.37;1787500;80;21433;-90
2022/07/02 08:14:00;;;;;;;2.70;1.70;;;;;;;33.41;19.12;101326.12;1787567;79;20907;-91
2022/07/02 08:16:28;;;;;;;3.77;1.22;;;;;;;33.23;19.00;101325.59;1789017;77;21275;-88
2022/07/02 08:18:55;;;;;;;5.97;1.27;;;;;;;33.12;19.33;101321.72;1789328;77;20891;-91
2022/07/02 08:21:22;;;;;;;3.65;1.20;;;;;;;33.11;19.76;101315.17;1790040;80;20955;-89
2022/07/02 08:23:50;;;;;;;2.95;1.80;;;;;;;33.11;19.98;101323.33;1789317;80;20998;-90
2022/07/02 08:26:17;;;;;;;2.27;1.15;;;;;;;33.23;20.08;101337.82;1787822;80;20828;-92
2022/07/02 08:30:33;;;;;;;5.10;1.30;;;;;;;33.29;18.74;101331.48;1885292;75;22461;-90
2022/07/02 08:33:05;;;;;;;6.75;1.35;;;;;;;33.09;19.17;101328.98;1862010;77;20875;-91
2022/07/02 08:35:32;;;;;;;6.53;1.50;;;;;;;33.08;19.38;101333.27;1861448;77;21149;-92
2022/07/02 08:37:59;;;;;;;2.45;1.07;;;;;;;33.16;19.28;101324.30;1861295;77;20984;-91
2022/07/02 08:40:29;;;;;;;3.27;1.25;;;;;;;33.28;18.97;101321.66;1860187;77;20812;-90
2022/07/02 08:42:58;;;;;;;3.95;1.32;;;;;;;33.30;19.29;101326.88;1860885;76;20911;-91
2022/07/02 08:45:32;;;;;;;10.85;9.90;;;;;;;33.42;19.43;101328.63;1861157;77;20871;-90
2022/07/02 08:47:59;;;;;;;37.05;33.58;;;;;;;33.50;19.22;101328.83;1831877;77;21379;-92
2022/07/02 08:50:27;;;;;;;5.22;3.70;;;;;;;33.33;18.90;101325.05;1861754;77;20860;-91
2022/07/02 08:52:55;;;;;;;7.83;6.08;;;;;;;33.00;18.86;101319.42;1861291;77;21395;-92
2022/07/02 08:55:22;;;;;;;4.30;1.42;;;;;;;32.88;19.05;101317.95;1861215;77;20888;-92
2022/07/02 08:57:50;;;;;;;3.95;1.17;;;;;;;32.98;18.89;101326.97;1861345;77;20863;-92
2022/07/02 09:00:21;;;;;;;4.00;1.20;;;;;;;33.05;18.77;101327.73;1861588;77;21420;-90
2022/07/02 09:02:53;;;;;;;5.40;1.00;;;;;;;33.15;19.08;101330.80;1860944;77;21325;-91
2022/07/02 09:05:21;;;;;;;5.40;1.20;;;;;;;33.29;18.90;101322.51;1861288;77;20903;-90
2022/07/02 09:07:48;;;;;;;3.75;1.42;;;;;;;33.40;19.04;101321.75;1861081;76;20856;-88
2022/07/02 09:10:17;;;;;;;3.22;1.00;;;;;;;33.48;18.68;101321.96;1830491;77;20966;-92
2022/07/02 09:12:45;;;;;;;2.27;0.90;;;;;;;33.50;19.08;101331.55;1861905;77;21423;-90
2022/07/02 09:15:12;;;;;;;2.15;1.15;;;;;;;33.62;19.20;101328.95;1833815;77;20903;-91
2022/07/02 09:17:43;;;;;;;3.05;2.85;;;;;;;33.81;18.71;101325.66;1863785;77;20864;-92
2022/07/02 09:20:11;;;;;;;4.37;1.87;;;;;;;33.60;18.56;101328.34;1833713;77;20863;-91
2022/07/02 09:22:42;;;;;;;2.98;1.00;;;;;;;33.27;19.01;101331.42;1862690;76;21340;-92
2022/07/02 09:25:19;;;;;;;3.90;1.90;;;;;;;33.11;19.32;101323.33;1860891;76;20864;-90
2022/07/02 09:27:46;;;;;;;4.42;1.67;;;;;;;33.10;19.11;101321.65;1861002;76;20950;-93
2022/07/02 09:30:18;;;;;;;11.55;1.85;;;;;;;33.03;19.22;101322.51;1852287;76;21019;-91
2022/07/02 09:32:46;;;;;;;1.47;1.20;;;;;;;33.01;18.91;101317.00;1850280;77;20929;-91
2022/07/02 09:35:18;;;;;;;4.97;1.52;;;;;;;32.94;19.28;101314.34;1850677;77;20984;-91
2022/07/02 09:37:47;;;;;;;4.80;1.20;;;;;;;32.89;19.38;101313.37;1850621;76;23238;-91
2022/07/02 09:40:14;;;;;;;4.53;1.75;;;;;;;32.78;19.49;101319.00;1851453;76;20948;-89
2022/07/02 09:42:47;;;;;;;5.65;1.70;;;;;;;32.77;19.70;101312.74;1851894;76;21295;-92
2022/07/02 09:45:14;;;;;;;6.12;1.27;;;;;;;32.81;20.39;101312.58;1849663;77;20968;-91
2022/07/02 09:47:51;;;;;;;2.10;1.10;;;;;;;33.01;20.28;101324.62;1849863;77;21514;-90
2022/07/02 09:50:19;;;;;;;4.30;1.42;;;;;;;33.14;19.75;101312.81;1849508;77;21347;-90
2022/07/02 09:52:57;;;;;;;4.17;1.50;;;;;;;33.26;19.58;101310.70;1849389;77;20905;-92
2022/07/02 09:55:30;;;;;;;4.58;1.20;;;;;;;33.33;20.02;101308.73;1849612;77;20937;-91
2022/07/02 09:58:01;;;;;;;11.57;1.35;;;;;;;33.39;20.16;101306.48;1849706;76;20921;-92
2022/07/02 10:00:32;;;;;;;3.60;1.20;;;;;;;33.51;19.55;101302.48;1849903;76;21675;-91
2022/07/02 10:02:59;;;;;;;2.30;1.17;;;;;;;33.52;19.40;101307.68;1849681;76;22363;-91
2022/07/02 10:05:33;;;;;;;3.60;1.40;;;;;;;33.49;19.42;101308.69;1851032;76;20850;-90
2022/07/02 10:08:04;;;;;;;1.47;1.27;;;;;;;33.49;19.38;101295.91;1850024;77;20854;-91
2022/07/02 10:10:38;;;;;;;3.95;1.27;;;;;;;33.56;19.72;101291.20;1849986;77;20909;-90
2022/07/02 10:13:03;;;;;;;7.15;1.20;;;;;;;33.54;19.70;101293.33;1851795;77;20964;-89
2022/07/02 10:15:31;;;;;;;4.90;1.55;;;;;;;33.35;19.81;101297.97;1852320;77;21223;-90
2022/07/02 10:18:00;;;;;;;3.85;1.85;;;;;;;33.29;19.90;101304.30;1851662;77;20830;-89
2022/07/02 10:20:30;;;;;;;5.20;1.17;;;;;;;33.26;19.99;101296.58;1852667;77;20896;-89
2022/07/02 10:23:00;;;;;;;8.68;1.87;;;;;;;33.18;19.75;101295.00;1851003;77;20886;-89
2022/07/02 10:25:27;;;;;;;1.05;0.95;;;;;;;33.05;20.23;101299.19;1849845;77;20909;-90
2022/07/02 10:27:57;;;;;;;7.75;1.00;;;;;;;33.06;20.02;101298.15;1850026;77;21358;-90
2022/07/02 10:30:34;;;;;;;5.33;1.37;;;;;;;33.08;20.42;101296.58;1861544;75;21408;-92
2022/07/02 10:33:39;;;;;;;3.25;0.95;;;;;;;33.19;20.50;101293.11;1864385;77;21443;-91
2022/07/02 10:36:13;;;;;;;1.40;1.20;;;;;;;33.19;20.17;101301.27;1835838;77;21357;-92
2022/07/02 10:38:41;;;;;;;3.55;1.25;;;;;;;33.33;20.48;101291.06;1863874;77;20922;-93
2022/07/02 10:41:09;;;;;;;2.58;0.80;;;;;;;33.52;20.52;101304.14;1863418;77;21282;-91
2022/07/02 10:43:38;;;;;;;3.98;1.12;;;;;;;33.59;20.03;101308.98;1863379;77;20868;-92
2022/07/02 10:46:08;;;;;;;4.17;1.30;;;;;;;33.63;20.21;101304.22;1863433;77;20949;-91
2022/07/02 10:48:50;;;;;;;1.92;0.80;;;;;;;33.65;20.22;101301.28;1863299;77;20855;-89
2022/07/02 10:51:29;;;;;;;3.20;1.00;;;;;;;33.70;20.01;101299.23;1863865;77;20862;-90
2022/07/02 10:54:02;;;;;;;6.55;1.00;;;;;;;33.68;19.43;101302.17;1863411;77;21117;-90
2022/07/02 10:56:31;;;;;;;4.72;1.25;;;;;;;33.39;19.66;101293.70;1863723;77;20902;-89
2022/07/02 10:58:58;;;;;;;4.67;1.17;;;;;;;33.31;20.06;101294.56;1863197;76;21491;-92
2022/07/02 11:01:25;;;;;;;5.70;1.70;;;;;;;33.34;19.96;101284.58;1863759;77;20879;-93
2022/07/02 11:04:00;;;;;;;8.48;1.75;;;;;;;33.41;20.07;101286.16;1863971;77;21326;-91
2022/07/02 11:06:31;;;;;;;7.78;1.60;;;;;;;33.24;20.34;101290.56;1863961;77;21198;-90
2022/07/02 11:09:03;;;;;;;16.43;1.53;;;;;;;33.15;20.35;101284.59;1864213;77;20914;-91
2022/07/02 11:11:39;;;;;;;2.77;1.62;;;;;;;33.09;21.02;101281.41;1865501;77;20943;-91
2022/07/02 11:14:18;;;;;;;1.70;1.00;;;;;;;33.18;21.40;101281.41;1866198;77;20916;-92
2022/07/02 11:16:50;;;;;;;7.00;1.30;;;;;;;33.32;21.44;101275.82;1866600;77;20919;-91
2022/07/02 11:19:29;;;;;;;8.58;1.75;;;;;;;33.36;20.78;101277.86;1866005;77;21145;-91
2022/07/02 11:21:59;;;;;;;2.40;1.82;;;;;;;33.11;21.01;101272.50;1864303;77;20956;-91
2022/07/02 11:24:31;;;;;;;8.48;3.22;;;;;;;33.00;21.65;101272.69;1863374;77;20919;-92
2022/07/02 11:26:58;;;;;;;4.53;3.05;;;;;;;32.99;21.17;101274.27;1864106;77;20855;-90
2022/07/02 11:29:25;;;;;;;9.60;3.65;;;;;;;32.98;21.13;101277.52;1863561;77;20804;-89
2022/07/02 11:31:58;;;;;;;7.22;2.83;;;;;;;32.88;21.37;101276.37;1861532;77;21076;-92
2022/07/02 11:34:29;;;;;;;5.03;2.95;;;;;;;32.65;21.75;101278.38;1861126;77;21389;-94